Time;durP1;ratioP1;P1;durP2;ratioP2;P2;SDS_P1;SDS_P2;PMS_P1;PMS_P2;Temp;Humidity;BMP_temperature;BMP_pressure;BME280_temperature;BME280_humidity;BME280_pressure;Samples;Min_cycle;Max_cycle;Signal;HPM_P1;HPM_P2
2022/08/04 00:01:11;;;;;;;;;;;26.50;67.90;;;;;;5070106;28;19908;-58
2022/08/04 00:03:57;;;;;;;;;;;26.50;67.40;;;;;;5052342;28;19987;-59
2022/08/04 00:06:33;;;;;;;;;;;26.50;67.00;;;;;;5007652;28;19953;-59
2022/08/04 00:09:01;;;;;;;;;;;26.40;67.10;;;;;;5008158;28;19917;-58
2022/08/04 00:11:29;;;;;;;;;;;26.40;67.40;;;;;;5011434;28;20032;-58
2022/08/04 00:14:09;;;;;;;;;;;26.40;67.30;;;;;;5011632;28;19910;-58
2022/08/04 00:16:36;;;;;;;;;;;26.30;67.20;;;;;;5011785;28;19909;-59
2022/08/04 00:19:28;;;;;;;;;;;26.30;67.40;;;;;;5011302;28;19956;-58
2022/08/04 00:21:59;;;;;;;;;;;26.30;67.40;;;;;;4971883;28;19914;-58
2022/08/04 00:24:24;;;;;;;;;;;26.30;67.50;;;;;;4972714;28;19925;-59
2022/08/04 00:26:52;;;;;;;;;;;26.20;67.40;;;;;;4972535;28;19914;-59
2022/08/04 00:29:17;;;;;;;;;;;26.20;67.00;;;;;;4972011;28;19910;-59
2022/08/04 00:31:43;;;;;;;;;;;26.20;67.00;;;;;;4972504;28;19973;-59
2022/08/04 00:34:12;;;;;;;;;;;26.20;68.20;;;;;;4972931;28;19996;-59
2022/08/04 00:36:39;;;;;;;;;;;26.10;69.30;;;;;;4971192;28;19910;-58
2022/08/04 00:39:06;;;;;;;;;;;26.20;68.40;;;;;;4972356;28;19993;-59
2022/08/04 00:41:38;;;;;;;;;;;26.10;68.60;;;;;;4971900;28;19957;-59
2022/08/04 00:44:25;;;;;;;;;;;26.10;69.10;;;;;;5016221;28;19913;-58
2022/08/04 00:46:59;;;;;;;;;;;26.10;69.50;;;;;;5030478;28;19921;-59
2022/08/04 00:49:30;;;;;;;;;;;26.00;70.60;;;;;;5030405;28;19913;-58
2022/08/04 00:52:14;;;;;;;;;;;26.00;69.70;;;;;;5030271;28;19909;-58
2022/08/04 00:55:00;;;;;;;;;;;25.90;70.40;;;;;;5031042;28;19916;-59
2022/08/04 00:57:35;;;;;;;;;;;25.80;71.00;;;;;;5025388;28;19913;-58
2022/08/04 01:00:03;;;;;;;;;;;25.80;71.50;;;;;;5072952;28;19912;-58
2022/08/04 01:02:32;;;;;;;;;;;25.70;70.70;;;;;;5072921;28;20336;-58
2022/08/04 01:05:19;;;;;;;;;;;25.70;71.00;;;;;;5072080;28;19920;-58
2022/08/04 01:08:03;;;;;;;;;;;25.60;70.80;;;;;;5072567;28;19915;-59
2022/08/04 01:10:39;;;;;;;;;;;25.60;70.80;;;;;;5072670;28;20018;-58
2022/08/04 01:13:14;;;;;;;;;;;25.60;71.60;;;;;;5072399;28;19908;-59
2022/08/04 01:15:42;;;;;;;;;;;25.50;71.10;;;;;;5072632;28;20780;-58
2022/08/04 01:18:12;;;;;;;;;;;25.50;72.40;;;;;;5072438;28;20045;-57
2022/08/04 01:20:47;;;;;;;;;;;25.40;72.10;;;;;;5071587;28;19916;-58
2022/08/04 01:23:13;;;;;;;;;;;25.30;71.80;;;;;;5072431;28;19916;-58
2022/08/04 01:25:57;;;;;;;;;;;25.30;72.90;;;;;;5072411;28;19922;-57
2022/08/04 01:28:22;;;;;;;;;;;25.20;72.60;;;;;;5087762;28;20012;-58
2022/08/04 01:30:52;;;;;;;;;;;25.20;72.90;;;;;;5071992;28;20053;-58
2022/08/04 01:33:18;;;;;;;;;;;25.10;72.80;;;;;;5071651;28;19908;-58
2022/08/04 01:35:50;;;;;;;;;;;25.00;73.10;;;;;;5054091;28;19946;-58
2022/08/04 01:38:21;;;;;;;;;;;25.00;73.40;;;;;;5071670;28;19920;-58
2022/08/04 01:40:50;;;;;;;;;;;24.90;73.70;;;;;;5072236;28;19913;-58
2022/08/04 01:43:16;;;;;;;;;;;24.80;74.40;;;;;;5066470;28;19909;-58
2022/08/04 01:45:43;;;;;;;;;;;24.80;74.40;;;;;;5072164;28;19921;-58
2022/08/04 01:48:09;;;;;;;;;;;24.70;74.30;;;;;;5064932;28;19919;-58
2022/08/04 01:50:35;;;;;;;;;;;24.70;74.90;;;;;;5054221;28;20003;-58
2022/08/04 01:53:01;;;;;;;;;;;24.70;74.50;;;;;;5071660;28;19908;-59
2022/08/04 01:55:27;;;;;;;;;;;24.60;75.10;;;;;;5071741;28;19970;-58
2022/08/04 01:57:55;;;;;;;;;;;24.60;75.00;;;;;;5071935;28;19938;-58
2022/08/04 02:00:25;;;;;;;;;;;24.60;74.70;;;;;;5072058;28;19908;-58
2022/08/04 02:02:51;;;;;;;;;;;24.60;75.20;;;;;;5070940;28;19921;-58
2022/08/04 02:05:19;;;;;;;;;;;24.50;75.40;;;;;;5071644;28;19986;-58
2022/08/04 02:08:02;;;;;;;;;;;24.50;75.60;;;;;;5071719;28;19912;-59
2022/08/04 02:10:46;;;;;;;;;;;24.40;76.00;;;;;;5071453;28;19915;-58
2022/08/04 02:13:14;;;;;;;;;;;24.40;76.30;;;;;;5071718;28;19913;-58
2022/08/04 02:15:46;;;;;;;;;;;24.30;76.60;;;;;;5071561;28;19912;-58
2022/08/04 02:18:22;;;;;;;;;;;24.30;76.50;;;;;;5070700;28;19920;-58
2022/08/04 02:20:51;;;;;;;;;;;24.30;76.70;;;;;;5071264;28;19909;-58
2022/08/04 02:23:27;;;;;;;;;;;24.30;76.60;;;;;;5071164;28;19913;-58
2022/08/04 02:25:56;;;;;;;;;;;24.20;76.50;;;;;;5071297;28;20297;-57
2022/08/04 02:28:31;;;;;;;;;;;24.20;76.90;;;;;;5071161;28;19954;-58
2022/08/04 02:31:03;;;;;;;;;;;24.10;77.00;;;;;;5071262;28;19908;-58
2022/08/04 02:33:39;;;;;;;;;;;24.10;77.30;;;;;;5070225;28;19908;-58
2022/08/04 02:36:05;;;;;;;;;;;24.10;77.30;;;;;;5071176;28;19909;-59
2022/08/04 02:38:37;;;;;;;;;;;24.10;77.80;;;;;;5070959;28;19935;-58
2022/08/04 02:41:03;;;;;;;;;;;24.10;78.00;;;;;;5071034;28;20383;-59
2022/08/04 02:43:29;;;;;;;;;;;24.00;77.60;;;;;;5071251;28;19971;-59
2022/08/04 02:45:58;;;;;;;;;;;24.00;77.40;;;;;;5070464;28;19917;-59
2022/08/04 02:48:25;;;;;;;;;;;23.90;78.30;;;;;;5070562;28;19943;-58
2022/08/04 02:50:53;;;;;;;;;;;23.90;78.20;;;;;;5071221;28;19919;-58
2022/08/04 02:53:20;;;;;;;;;;;23.80;78.50;;;;;;5052692;28;19913;-59
2022/08/04 02:55:46;;;;;;;;;;;23.80;79.00;;;;;;5070952;28;19912;-58
2022/08/04 02:58:14;;;;;;;;;;;23.70;79.10;;;;;;5070559;28;19908;-57
2022/08/04 03:00:39;;;;;;;;;;;23.80;78.90;;;;;;5070925;28;19916;-59
2022/08/04 03:03:05;;;;;;;;;;;23.70;79.40;;;;;;5070582;28;20409;-59
2022/08/04 03:05:36;;;;;;;;;;;23.70;79.30;;;;;;5052543;28;19928;-58
2022/08/04 03:08:11;;;;;;;;;;;23.60;79.70;;;;;;5070695;28;19974;-58
2022/08/04 03:10:46;;;;;;;;;;;23.60;79.40;;;;;;5070649;28;20365;-58
2022/08/04 03:13:26;;;;;;;;;;;23.60;79.70;;;;;;5070958;28;19920;-59
2022/08/04 03:15:58;;;;;;;;;;;23.60;80.10;;;;;;5070313;28;19954;-58
2022/08/04 03:18:32;;;;;;;;;;;23.60;80.10;;;;;;5070296;28;19948;-58
2022/08/04 03:21:12;;;;;;;;;;;23.60;80.00;;;;;;5070788;28;20367;-58
2022/08/04 03:23:56;;;;;;;;;;;23.60;79.80;;;;;;5070669;28;19912;-58
2022/08/04 03:26:27;;;;;;;;;;;23.60;80.10;;;;;;5070903;28;19923;-59
2022/08/04 03:28:53;;;;;;;;;;;23.60;80.10;;;;;;5070845;28;19909;-58
2022/08/04 03:31:21;;;;;;;;;;;23.60;80.30;;;;;;5069853;28;19908;-58
2022/08/04 03:34:05;;;;;;;;;;;23.50;80.20;;;;;;5052700;28;19973;-58
2022/08/04 03:36:37;;;;;;;;;;;23.50;80.60;;;;;;5069340;28;19919;-58
2022/08/04 03:39:21;;;;;;;;;;;23.40;81.20;;;;;;5070238;28;19920;-57
2022/08/04 03:42:07;;;;;;;;;;;23.40;80.60;;;;;;5070284;28;20355;-59
2022/08/04 03:45:00;;;;;;;;;;;23.40;81.20;;;;;;5071652;28;19919;-58
2022/08/04 03:47:42;;;;;;;;;;;23.40;81.30;;;;;;5068777;28;19916;-58
2022/08/04 03:50:37;;;;;;;;;;;23.30;81.30;;;;;;5073869;28;19909;-59
2022/08/04 03:53:18;;;;;;;;;;;23.30;81.60;;;;;;5011978;28;19920;-58
2022/08/04 03:55:55;;;;;;;;;;;23.30;81.10;;;;;;5011881;28;20382;-58
2022/08/04 03:58:39;;;;;;;;;;;23.30;81.30;;;;;;5011881;28;19917;-59
2022/08/04 04:01:05;;;;;;;;;;;23.20;81.40;;;;;;5011822;28;19914;-59
2022/08/04 04:03:30;;;;;;;;;;;23.20;81.30;;;;;;5012506;28;19913;-58
2022/08/04 04:06:09;;;;;;;;;;;23.20;81.50;;;;;;5011624;28;19918;-59
2022/08/04 04:08:53;;;;;;;;;;;23.20;81.20;;;;;;5011714;28;19909;-58
2022/08/04 04:11:18;;;;;;;;;;;23.20;81.70;;;;;;5011392;28;19909;-58
2022/08/04 04:14:02;;;;;;;;;;;23.20;81.40;;;;;;5011631;28;19909;-59
2022/08/04 04:16:37;;;;;;;;;;;23.20;82.00;;;;;;5012251;28;20717;-58
2022/08/04 04:19:08;;;;;;;;;;;23.20;81.50;;;;;;5011687;28;19917;-57
2022/08/04 04:21:51;;;;;;;;;;;23.20;81.90;;;;;;5012145;28;19916;-58
2022/08/04 04:24:35;;;;;;;;;;;23.20;82.00;;;;;;5011709;28;19918;-59
2022/08/04 04:27:01;;;;;;;;;;;23.10;82.30;;;;;;5011763;28;20432;-58
2022/08/04 04:29:49;;;;;;;;;;;23.10;82.40;;;;;;5041547;28;19962;-58
2022/08/04 04:32:30;;;;;;;;;;;23.10;82.50;;;;;;5074001;28;19965;-58
2022/08/04 04:35:08;;;;;;;;;;;23.20;83.00;;;;;;5073787;28;19940;-58
2022/08/04 04:37:55;;;;;;;;;;;23.10;82.70;;;;;;5073579;28;19915;-58
2022/08/04 04:40:28;;;;;;;;;;;23.10;82.70;;;;;;5073247;28;20038;-58
2022/08/04 04:43:09;;;;;;;;;;;23.10;82.90;;;;;;5073130;28;19913;-58
2022/08/04 04:45:40;;;;;;;;;;;23.10;82.40;;;;;;5089150;28;19921;-58
2022/08/04 04:48:16;;;;;;;;;;;23.10;82.70;;;;;;5073784;28;19915;-58
2022/08/04 04:50:42;;;;;;;;;;;23.00;83.10;;;;;;5073702;28;19909;-59
2022/08/04 04:53:22;;;;;;;;;;;23.10;84.00;;;;;;5073933;28;19934;-59
2022/08/04 04:55:54;;;;;;;;;;;22.90;83.90;;;;;;5072728;28;19908;-58
2022/08/04 04:58:21;;;;;;;;;;;23.00;83.60;;;;;;5055096;28;19908;-57
2022/08/04 05:00:53;;;;;;;;;;;22.90;84.20;;;;;;5073704;28;19913;-58
2022/08/04 05:03:38;;;;;;;;;;;22.90;84.30;;;;;;5073239;28;19963;-58
2022/08/04 05:06:10;;;;;;;;;;;22.90;84.10;;;;;;5072841;28;20359;-59
2022/08/04 05:08:44;;;;;;;;;;;22.80;84.30;;;;;;5073490;28;19918;-58
2022/08/04 05:11:25;;;;;;;;;;;22.70;83.80;;;;;;5072929;28;19909;-58
2022/08/04 05:13:55;;;;;;;;;;;22.70;84.20;;;;;;5068651;28;19919;-59
2022/08/04 05:16:39;;;;;;;;;;;22.70;83.80;;;;;;5072866;28;19912;-58
2022/08/04 05:19:19;;;;;;;;;;;22.70;83.80;;;;;;5072858;28;19908;-59
2022/08/04 05:21:45;;;;;;;;;;;22.60;83.80;;;;;;5073311;28;19933;-58
2022/08/04 05:24:12;;;;;;;;;;;22.60;84.30;;;;;;5072741;28;20357;-58
2022/08/04 05:26:44;;;;;;;;;;;22.50;84.60;;;;;;5072113;28;19913;-58
2022/08/04 05:29:12;;;;;;;;;;;22.50;84.40;;;;;;5072863;28;20300;-57
2022/08/04 05:31:43;;;;;;;;;;;22.50;84.50;;;;;;5072651;28;19981;-58
2022/08/04 05:34:09;;;;;;;;;;;22.40;84.70;;;;;;5073127;28;19938;-58
2022/08/04 05:36:48;;;;;;;;;;;22.40;85.00;;;;;;5072503;28;19909;-58
2022/08/04 05:39:16;;;;;;;;;;;22.30;84.90;;;;;;5072614;28;19951;-56
2022/08/04 05:41:42;;;;;;;;;;;22.30;84.90;;;;;;5071709;28;19908;-59
2022/08/04 05:44:09;;;;;;;;;;;22.20;84.90;;;;;;5072536;28;20023;-58
2022/08/04 05:46:35;;;;;;;;;;;22.20;84.80;;;;;;5072808;28;19920;-56
2022/08/04 05:49:01;;;;;;;;;;;22.20;84.60;;;;;;5072335;28;19952;-59
2022/08/04 05:51:28;;;;;;;;;;;22.20;84.30;;;;;;5072491;28;20439;-59
2022/08/04 05:53:54;;;;;;;;;;;22.10;84.70;;;;;;5065904;28;20276;-59
2022/08/04 05:56:20;;;;;;;;;;;22.10;84.70;;;;;;5068851;28;20011;-59
2022/08/04 05:58:46;;;;;;;;;;;22.10;84.50;;;;;;5072114;28;19991;-59
2022/08/04 06:01:13;;;;;;;;;;;22.20;84.60;;;;;;5072005;28;20423;-59
2022/08/04 06:03:39;;;;;;;;;;;22.20;84.60;;;;;;5072277;28;19915;-60
2022/08/04 06:06:05;;;;;;;;;;;22.20;84.60;;;;;;5071918;28;20468;-59
2022/08/04 06:08:31;;;;;;;;;;;22.30;84.60;;;;;;5071468;28;20432;-59
2022/08/04 06:10:58;;;;;;;;;;;22.30;84.50;;;;;;5071522;28;19940;-60
2022/08/04 06:13:36;;;;;;;;;;;22.30;84.40;;;;;;5072444;28;19913;-60
2022/08/04 06:16:04;;;;;;;;;;;22.40;84.30;;;;;;5071839;28;19912;-59
2022/08/04 06:18:31;;;;;;;;;;;22.40;84.50;;;;;;5072196;28;19916;-60
2022/08/04 06:20:59;;;;;;;;;;;22.30;84.50;;;;;;5069075;28;20415;-58
2022/08/04 06:23:28;;;;;;;;;;;22.40;84.90;;;;;;5071679;28;19908;-56
2022/08/04 06:25:55;;;;;;;;;;;22.40;84.70;;;;;;5071018;28;20285;-58
2022/08/04 06:28:21;;;;;;;;;;;22.40;84.60;;;;;;5071714;28;19913;-59
2022/08/04 06:30:49;;;;;;;;;;;22.40;84.50;;;;;;5071770;28;20002;-60
2022/08/04 06:33:33;;;;;;;;;;;22.50;84.60;;;;;;5071390;28;19908;-60
2022/08/04 06:36:00;;;;;;;;;;;22.40;84.40;;;;;;5071419;28;19908;-60
2022/08/04 06:38:27;;;;;;;;;;;22.50;84.50;;;;;;5066379;28;19921;-60
2022/08/04 06:40:53;;;;;;;;;;;22.50;84.50;;;;;;5069903;28;20369;-58
2022/08/04 06:43:19;;;;;;;;;;;22.50;84.50;;;;;;5070545;28;19956;-60
2022/08/04 06:45:45;;;;;;;;;;;22.60;84.30;;;;;;5069790;28;19994;-60
2022/08/04 06:48:13;;;;;;;;;;;22.60;84.10;;;;;;5070212;28;20286;-60
2022/08/04 06:50:39;;;;;;;;;;;22.60;84.10;;;;;;5063985;28;20292;-60
2022/08/04 06:53:05;;;;;;;;;;;22.60;84.50;;;;;;5070144;28;19916;-60
2022/08/04 06:55:31;;;;;;;;;;;22.60;84.30;;;;;;5051012;28;20273;-60
2022/08/04 06:57:57;;;;;;;;;;;22.60;84.40;;;;;;5070779;28;19961;-60
2022/08/04 07:00:24;;;;;;;;;;;22.70;84.40;;;;;;5050618;28;19921;-60
2022/08/04 07:02:50;;;;;;;;;;;22.80;84.30;;;;;;5070525;28;20001;-61
2022/08/04 07:05:17;;;;;;;;;;;22.90;84.30;;;;;;5063566;28;19924;-60
2022/08/04 07:07:43;;;;;;;;;;;23.00;84.00;;;;;;5067515;28;20300;-57
2022/08/04 07:10:09;;;;;;;;;;;23.10;83.70;;;;;;5068790;28;20007;-60
2022/08/04 07:12:35;;;;;;;;;;;23.10;83.20;;;;;;5069453;28;20011;-59
2022/08/04 07:15:01;;;;;;;;;;;23.10;83.20;;;;;;5068872;28;20418;-60
2022/08/04 07:17:27;;;;;;;;;;;23.10;82.80;;;;;;5069347;28;19999;-59
2022/08/04 07:19:53;;;;;;;;;;;23.20;82.90;;;;;;5071189;28;20321;-59
2022/08/04 07:22:19;;;;;;;;;;;23.20;82.80;;;;;;5072259;28;19919;-60
2022/08/04 07:24:44;;;;;;;;;;;23.30;82.80;;;;;;5072666;28;20349;-60
2022/08/04 07:27:10;;;;;;;;;;;23.30;82.80;;;;;;5072447;28;20427;-58
2022/08/04 07:29:36;;;;;;;;;;;23.40;82.90;;;;;;5071656;28;19917;-60
2022/08/04 07:32:03;;;;;;;;;;;23.40;82.90;;;;;;5070550;28;19912;-60
2022/08/04 07:34:28;;;;;;;;;;;23.60;82.70;;;;;;5072214;28;19920;-58
2022/08/04 07:36:56;;;;;;;;;;;23.60;82.50;;;;;;5071744;28;19920;-60
2022/08/04 07:39:25;;;;;;;;;;;23.60;83.30;;;;;;5072384;28;19938;-59
2022/08/04 07:41:51;;;;;;;;;;;23.70;82.70;;;;;;5069400;28;19982;-60
2022/08/04 07:44:16;;;;;;;;;;;23.80;82.10;;;;;;5053711;28;19916;-59
2022/08/04 07:46:44;;;;;;;;;;;23.80;82.10;;;;;;5072347;28;19923;-59
2022/08/04 07:49:10;;;;;;;;;;;23.70;81.90;;;;;;5072236;28;19919;-59
2022/08/04 07:51:36;;;;;;;;;;;23.80;82.00;;;;;;5071137;28;19922;-58
2022/08/04 07:54:03;;;;;;;;;;;23.80;82.10;;;;;;5071771;28;19920;-59
2022/08/04 07:56:30;;;;;;;;;;;23.80;82.40;;;;;;5070874;28;19999;-59
2022/08/04 07:58:55;;;;;;;;;;;23.80;82.60;;;;;;5071815;28;19927;-59
2022/08/04 08:01:24;;;;;;;;;;;23.80;82.40;;;;;;5071783;28;19921;-59
2022/08/04 08:03:51;;;;;;;;;;;23.80;82.90;;;;;;5068486;28;19916;-59
2022/08/04 08:06:17;;;;;;;;;;;23.80;83.10;;;;;;5068171;28;19996;-59
2022/08/04 08:08:42;;;;;;;;;;;23.70;83.30;;;;;;5071505;28;20348;-59
2022/08/04 08:11:08;;;;;;;;;;;23.70;83.90;;;;;;5071307;28;19925;-59
2022/08/04 08:13:34;;;;;;;;;;;23.70;83.40;;;;;;5053454;28;19913;-58
2022/08/04 08:16:00;;;;;;;;;;;23.60;83.60;;;;;;5072637;28;19912;-59
2022/08/04 08:18:25;;;;;;;;;;;23.60;84.50;;;;;;5073598;28;19959;-59
2022/08/04 08:20:52;;;;;;;;;;;23.60;85.30;;;;;;5072648;28;19954;-59
2022/08/04 08:23:17;;;;;;;;;;;23.50;85.20;;;;;;5070013;28;20523;-59
2022/08/04 08:25:43;;;;;;;;;;;23.50;85.50;;;;;;5073194;28;20016;-59
2022/08/04 08:28:09;;;;;;;;;;;23.40;85.40;;;;;;5069809;28;20304;-58
2022/08/04 08:30:34;;;;;;;;;;;23.30;85.90;;;;;;5066770;28;20381;-58
2022/08/04 08:33:02;;;;;;;;;;;23.30;87.10;;;;;;5073167;28;19919;-56
2022/08/04 08:35:31;;;;;;;;;;;23.30;87.50;;;;;;5072858;28;20402;-58
2022/08/04 08:38:00;;;;;;;;;;;23.20;87.40;;;;;;5073148;28;19921;-57
2022/08/04 08:40:29;;;;;;;;;;;23.20;87.70;;;;;;5073038;28;19908;-58
2022/08/04 08:43:27;;;;;;;;;;;23.30;87.70;;;;;;5072470;28;19919;-58
2022/08/04 08:46:01;;;;;;;;;;;23.30;87.60;;;;;;5006884;28;19918;-58
2022/08/04 08:48:54;;;;;;;;;;;23.20;88.00;;;;;;5010221;28;20004;-58
2022/08/04 08:51:30;;;;;;;;;;;23.10;88.00;;;;;;5010777;28;19924;-57
2022/08/04 08:54:23;;;;;;;;;;;23.10;88.70;;;;;;5010848;28;19909;-58
2022/08/04 08:57:07;;;;;;;;;;;23.00;89.10;;;;;;5010483;28;20701;-59
2022/08/04 08:59:55;;;;;;;;;;;23.00;89.20;;;;;;5010598;28;19991;-58
2022/08/04 09:02:39;;;;;;;;;;;23.00;88.50;;;;;;5010501;28;19917;-58
2022/08/04 09:05:11;;;;;;;;;;;23.00;88.90;;;;;;5010523;28;19913;-57
2022/08/04 09:07:54;;;;;;;;;;;23.00;88.60;;;;;;5010175;28;19971;-59
2022/08/04 09:10:26;;;;;;;;;;;23.00;89.30;;;;;;5010529;28;19916;-58
2022/08/04 09:13:04;;;;;;;;;;;23.00;89.10;;;;;;5010540;28;19909;-58
2022/08/04 09:15:43;;;;;;;;;;;23.10;89.30;;;;;;5010582;28;19922;-58
2022/08/04 09:18:09;;;;;;;;;;;23.20;89.20;;;;;;4990020;28;19916;-57
2022/08/04 09:20:42;;;;;;;;;;;23.20;89.20;;;;;;5014691;28;19909;-57
2022/08/04 09:23:26;;;;;;;;;;;23.40;88.90;;;;;;5072508;28;19915;-58
2022/08/04 09:26:01;;;;;;;;;;;23.40;88.60;;;;;;5072724;28;19920;-58
2022/08/04 09:28:29;;;;;;;;;;;23.40;88.40;;;;;;5066012;28;20323;-58
2022/08/04 09:31:15;;;;;;;;;;;23.40;88.70;;;;;;5071926;28;19913;-58
2022/08/04 09:33:54;;;;;;;;;;;23.40;88.80;;;;;;5071746;28;19912;-58
2022/08/04 09:36:27;;;;;;;;;;;23.60;88.90;;;;;;5072131;28;19912;-58
2022/08/04 09:39:05;;;;;;;;;;;23.60;88.60;;;;;;5072134;28;19932;-58
2022/08/04 09:41:52;;;;;;;;;;;23.70;88.90;;;;;;5072030;28;19909;-58
2022/08/04 09:44:36;;;;;;;;;;;23.80;88.70;;;;;;5071786;28;19920;-59
2022/08/04 09:47:30;;;;;;;;;;;23.80;88.40;;;;;;5052999;28;20220;-58
2022/08/04 09:50:02;;;;;;;;;;;23.80;88.10;;;;;;5068807;28;19913;-58
2022/08/04 09:52:45;;;;;;;;;;;23.80;88.20;;;;;;5072196;28;19908;-56
2022/08/04 09:55:17;;;;;;;;;;;23.90;88.40;;;;;;5071850;28;19999;-58
2022/08/04 09:58:03;;;;;;;;;;;23.90;87.80;;;;;;5071646;28;19915;-58
2022/08/04 10:00:32;;;;;;;;;;;23.90;87.90;;;;;;5054012;28;19908;-57
2022/08/04 10:02:59;;;;;;;;;;;24.00;87.70;;;;;;5064980;28;19908;-58
2022/08/04 10:05:32;;;;;;;;;;;23.90;87.70;;;;;;5072263;28;19947;-58
2022/08/04 10:08:03;;;;;;;;;;;24.00;88.10;;;;;;5071479;28;20427;-58
2022/08/04 10:10:37;;;;;;;;;;;24.00;87.90;;;;;;5086858;28;20341;-58
2022/08/04 10:13:11;;;;;;;;;;;24.00;87.80;;;;;;5071410;28;19993;-57
2022/08/04 10:16:02;;;;;;;;;;;23.90;87.40;;;;;;5071073;28;19952;-56
2022/08/04 10:18:43;;;;;;;;;;;23.80;87.80;;;;;;5008856;28;20568;-57
2022/08/04 10:21:27;;;;;;;;;;;23.70;88.20;;;;;;5009690;28;19909;-58
2022/08/04 10:23:57;;;;;;;;;;;23.80;88.40;;;;;;5008985;28;19924;-58
2022/08/04 10:26:41;;;;;;;;;;;23.80;88.40;;;;;;5009026;28;20448;-58
2022/08/04 10:29:23;;;;;;;;;;;23.80;88.70;;;;;;5008832;28;20447;-57
2022/08/04 10:32:12;;;;;;;;;;;23.70;88.80;;;;;;5008864;28;19913;-58
2022/08/04 10:34:42;;;;;;;;;;;23.80;88.80;;;;;;4969889;28;19933;-57
2022/08/04 10:37:18;;;;;;;;;;;23.70;88.90;;;;;;4970564;28;19925;-57
2022/08/04 10:40:35;;;;;;;;;;;23.60;88.70;;;;;;4969654;28;19933;-58
2022/08/04 10:42:30;;;;;;;;;;;23.70;89.50;;;;;;4969591;28;19914;-58
2022/08/04 10:45:01;;;;;;;;;;;23.70;89.20;;;;;;4969023;28;20310;-57
2022/08/04 10:47:34;;;;;;;;;;;23.80;89.00;;;;;;4969617;28;20058;-58
2022/08/04 10:50:01;;;;;;;;;;;23.90;88.60;;;;;;4969560;28;19952;-58
2022/08/04 10:52:44;;;;;;;;;;;23.90;88.50;;;;;;4969280;28;19921;-57
2022/08/04 10:55:20;;;;;;;;;;;24.00;88.60;;;;;;4995979;28;19916;-58
2022/08/04 10:57:49;;;;;;;;;;;24.00;88.50;;;;;;5028466;28;19940;-58
2022/08/04 11:00:21;;;;;;;;;;;24.00;88.50;;;;;;5027486;28;20515;-58
2022/08/04 11:02:53;;;;;;;;;;;24.10;88.70;;;;;;5028642;28;20342;-58
2022/08/04 11:05:30;;;;;;;;;;;24.20;88.50;;;;;;5028317;28;20763;-58
2022/08/04 11:08:00;;;;;;;;;;;24.10;88.20;;;;;;5028395;28;19929;-58
2022/08/04 11:10:28;;;;;;;;;;;24.10;88.40;;;;;;5028219;28;19956;-58
2022/08/04 11:12:56;;;;;;;;;;;24.20;88.30;;;;;;5070234;28;20453;-58
2022/08/04 11:15:24;;;;;;;;;;;24.20;88.00;;;;;;5070137;28;20024;-58
2022/08/04 11:17:54;;;;;;;;;;;24.20;88.00;;;;;;5070421;28;19961;-59
2022/08/04 11:20:29;;;;;;;;;;;24.20;88.00;;;;;;5070419;28;19909;-58
2022/08/04 11:23:00;;;;;;;;;;;24.20;87.70;;;;;;5070459;28;20273;-59
2022/08/04 11:25:28;;;;;;;;;;;24.30;88.00;;;;;;5070756;28;19969;-59
2022/08/04 11:28:00;;;;;;;;;;;24.30;87.90;;;;;;5069925;28;20393;-58
2022/08/04 11:30:41;;;;;;;;;;;24.30;88.00;;;;;;5069913;28;19908;-58
2022/08/04 11:33:30;;;;;;;;;;;24.40;88.10;;;;;;5086170;28;19943;-58
2022/08/04 11:35:58;;;;;;;;;;;24.60;87.80;;;;;;5070517;28;19962;-57
2022/08/04 11:38:27;;;;;;;;;;;24.70;86.60;;;;;;5070185;28;19921;-59
2022/08/04 11:40:57;;;;;;;;;;;24.70;86.70;;;;;;5070174;28;19923;-58
2022/08/04 11:43:31;;;;;;;;;;;24.80;86.40;;;;;;5051967;28;20556;-58
2022/08/04 11:45:59;;;;;;;;;;;24.80;86.30;;;;;;5070564;28;19916;-58
2022/08/04 11:48:28;;;;;;;;;;;24.80;86.30;;;;;;5070268;28;20002;-59
2022/08/04 11:50:55;;;;;;;;;;;25.00;85.90;;;;;;5070326;28;19916;-58
2022/08/04 11:53:22;;;;;;;;;;;25.00;85.80;;;;;;5070285;28;20053;-59
2022/08/04 11:55:52;;;;;;;;;;;25.00;85.70;;;;;;5052931;28;19915;-59
2022/08/04 11:58:19;;;;;;;;;;;25.00;85.40;;;;;;5051667;28;19960;-59
2022/08/04 12:01:04;;;;;;;;;;;25.20;85.20;;;;;;5070186;28;19913;-58
2022/08/04 12:03:30;;;;;;;;;;;25.20;85.30;;;;;;5070035;28;19938;-59
2022/08/04 12:06:16;;;;;;;;;;;25.30;84.90;;;;;;5072905;28;19921;-57
2022/08/04 12:08:44;;;;;;;;;;;25.40;85.30;;;;;;5073950;28;19908;-58
2022/08/04 12:11:09;;;;;;;;;;;25.50;84.90;;;;;;5074020;28;19987;-59
2022/08/04 12:13:53;;;;;;;;;;;25.60;84.90;;;;;;5073756;28;20503;-59
2022/08/04 12:16:21;;;;;;;;;;;25.60;84.60;;;;;;5074244;28;19913;-59
2022/08/04 12:18:57;;;;;;;;;;;25.80;84.60;;;;;;5073855;28;19915;-59
2022/08/04 12:21:43;;;;;;;;;;;25.90;84.20;;;;;;5073509;28;19908;-58
2022/08/04 12:24:16;;;;;;;;;;;25.80;83.30;;;;;;5073541;28;19912;-59
2022/08/04 12:26:43;;;;;;;;;;;25.90;83.60;;;;;;5073107;28;19955;-58
2022/08/04 12:29:10;;;;;;;;;;;25.90;83.30;;;;;;5073292;28;19999;-58
2022/08/04 12:31:47;;;;;;;;;;;26.00;82.50;;;;;;5073387;28;19912;-58
2022/08/04 12:34:41;;;;;;;;;;;26.10;82.60;;;;;;5073350;28;19912;-59
2022/08/04 12:37:20;;;;;;;;;;;26.10;82.30;;;;;;5072618;28;19947;-59
2022/08/04 12:39:47;;;;;;;;;;;26.10;82.30;;;;;;5073072;28;19920;-58
2022/08/04 12:42:28;;;;;;;;;;;26.20;81.50;;;;;;5072705;28;19908;-58
2022/08/04 12:44:54;;;;;;;;;;;26.20;81.50;;;;;;5059721;28;19920;-58
2022/08/04 12:47:27;;;;;;;;;;;26.10;80.80;;;;;;5076959;28;19962;-58
2022/08/04 12:49:54;;;;;;;;;;;26.20;81.50;;;;;;5077852;28;19922;-58
2022/08/04 12:52:20;;;;;;;;;;;26.20;82.00;;;;;;5080211;28;19923;-58
2022/08/04 12:54:50;;;;;;;;;;;26.30;81.00;;;;;;5075110;28;20311;-59
2022/08/04 12:57:17;;;;;;;;;;;26.30;80.20;;;;;;5076031;28;19912;-58
2022/08/04 12:59:43;;;;;;;;;;;26.30;80.60;;;;;;5073822;28;19921;-59
2022/08/04 13:02:23;;;;;;;;;;;26.30;80.20;;;;;;5077306;28;19954;-58
2022/08/04 13:04:49;;;;;;;;;;;26.30;80.10;;;;;;5073951;28;19924;-59
2022/08/04 13:07:18;;;;;;;;;;;26.30;79.70;;;;;;5075515;28;19951;-59
2022/08/04 13:09:43;;;;;;;;;;;26.40;80.20;;;;;;5076485;28;19954;-60
2022/08/04 13:12:13;;;;;;;;;;;26.50;81.90;;;;;;5076346;28;19912;-59
2022/08/04 13:14:42;;;;;;;;;;;26.60;80.40;;;;;;5075308;28;20080;-60
2022/08/04 13:17:07;;;;;;;;;;;26.60;80.70;;;;;;5076122;28;19962;-60
2022/08/04 13:19:33;;;;;;;;;;;26.60;80.80;;;;;;5059425;28;19912;-60
2022/08/04 13:21:59;;;;;;;;;;;26.70;80.40;;;;;;5074691;28;19974;-59
2022/08/04 13:24:26;;;;;;;;;;;26.80;79.80;;;;;;5076825;28;19912;-60
2022/08/04 13:26:56;;;;;;;;;;;26.80;80.00;;;;;;5069654;28;19979;-59
2022/08/04 13:29:30;;;;;;;;;;;26.80;79.90;;;;;;5079478;28;19916;-58
2022/08/04 13:31:55;;;;;;;;;;;26.80;79.30;;;;;;5076590;28;19913;-60
2022/08/04 13:34:21;;;;;;;;;;;26.80;79.50;;;;;;5077300;28;19920;-59
2022/08/04 13:36:48;;;;;;;;;;;26.80;78.90;;;;;;5075241;28;19912;-59
2022/08/04 13:39:16;;;;;;;;;;;26.90;79.30;;;;;;5076385;28;20007;-60
2022/08/04 13:41:44;;;;;;;;;;;26.90;78.80;;;;;;5073164;28;20564;-60
2022/08/04 13:44:10;;;;;;;;;;;26.90;78.60;;;;;;5075685;28;19937;-59
2022/08/04 13:47:11;;;;;;;;;;;27.00;78.60;;;;;;5075841;28;19925;-60
2022/08/04 13:49:36;;;;;;;;;;;27.00;78.70;;;;;;5014314;28;20012;-59
2022/08/04 13:52:03;;;;;;;;;;;27.00;78.10;;;;;;5014792;28;20008;-59
2022/08/04 13:54:39;;;;;;;;;;;27.00;77.70;;;;;;5012814;28;19914;-59
2022/08/04 13:57:09;;;;;;;;;;;26.90;78.20;;;;;;5015797;28;19927;-60
2022/08/04 13:59:36;;;;;;;;;;;26.90;77.60;;;;;;5012972;28;19957;-60
2022/08/04 14:02:03;;;;;;;;;;;27.00;77.40;;;;;;5013884;28;19917;-59
2022/08/04 14:04:30;;;;;;;;;;;27.00;76.90;;;;;;5013818;28;20325;-59
2022/08/04 14:07:12;;;;;;;;;;;27.10;77.20;;;;;;5013116;28;19921;-60
2022/08/04 14:09:38;;;;;;;;;;;27.20;77.10;;;;;;5016231;28;19932;-60
2022/08/04 14:12:11;;;;;;;;;;;27.20;76.00;;;;;;5013765;28;19921;-61
2022/08/04 14:14:47;;;;;;;;;;;27.30;76.20;;;;;;5013564;28;20428;-60
2022/08/04 14:17:14;;;;;;;;;;;27.40;76.00;;;;;;5014742;28;20522;-60
2022/08/04 14:19:49;;;;;;;;;;;27.50;76.40;;;;;;5017783;28;19956;-59
2022/08/04 14:22:29;;;;;;;;;;;27.60;76.30;;;;;;5014013;28;19937;-59
2022/08/04 14:25:08;;;;;;;;;;;27.60;75.60;;;;;;5074095;28;19966;-58
2022/08/04 14:27:44;;;;;;;;;;;27.60;75.70;;;;;;5078264;28;19918;-58
2022/08/04 14:30:21;;;;;;;;;;;27.70;76.50;;;;;;5074080;28;19959;-58
2022/08/04 14:33:03;;;;;;;;;;;27.80;75.70;;;;;;5074002;28;19916;-59
2022/08/04 14:35:31;;;;;;;;;;;27.80;76.10;;;;;;5072075;28;19917;-57
2022/08/04 14:37:58;;;;;;;;;;;27.80;75.90;;;;;;5075590;28;19928;-59
2022/08/04 14:40:25;;;;;;;;;;;27.80;75.60;;;;;;5077259;28;19926;-59
2022/08/04 14:42:51;;;;;;;;;;;27.80;75.70;;;;;;5075123;28;20377;-59
2022/08/04 14:45:17;;;;;;;;;;;27.80;75.90;;;;;;5072123;28;19928;-60